Terminal Aerodrome Forecast
Issued by NWS

Home | Current Version | Previous Version | Text Only | Print | Product List | Glossary On
Versions: 1 2 3 4 5 6 7 8 9 10 11 12 13 14 15
000
FTUS41 KCAR 031735 AAA
TAFFVE
TAF AMD
KFVE 031735Z 0318/0418 05004KT P6SM OVC015
     FM040000 VRB03KT P6SM OVC025
     FM041500 09004KT P6SM BKN035=

USA.gov is the U.S. government's official web portal to all federal, state and local government web resources and services.